WAAA/UPG METAR and TAF weather

Enter ICAO airport designator
Station Type Date Time Source
WAAA METAR 2020/09/23 19:00 UTC NOAA

WAAA 231900Z AUTO VRB02KT 9999 SCT260 BKN280 25/23 Q1009


Station Type Date Time Source
WAAA Decoded METAR 2020/09/23 19:00 UTC NOAA

Ujung Pandang / Hasanuddin, Indonesia (WAAA) 05-04S 119-33E 14M
Sep 23, 2020 - 03:00 PM EDT / 2020.09.23 1900 UTC
Wind: Variable at 2 MPH (2 KT):0
Visibility: greater than 7 mile(s):0
Sky conditions: mostly cloudy
Temperature: 77 F (25 C)
Dew Point: 73 F (23 C)
Relative Humidity: 88%
Pressure (altimeter): 29.80 in. Hg (1009 hPa)
ob: WAAA 231900Z AUTO VRB02KT 9999 SCT260 BKN280 25/23 Q1009
cycle: 19

Station Type Date Time Source
WAAA TAF 2020/09/23 18:06 UTC NOAA

TAF WAAA 231700Z 2318/2500 09004KT 8000 SCT020
BECMG 2401/2403 29010KT 9999
TEMPO 2406/2409 6000 -RA FEW018CB
BECMG 2410/2412 09005KT 8000

Example: see airport list